Porthos — FM2710 — position and weather

sailwx.info

Track history (hours):
 
Tides and Currents Weather Stations Pressure Air Temp Water Temp Dewpoint Dewpoint Depression Visibility Wind Speed Wind Dir Waves Ship Positions

Porthos

Last reported at 2017-Feb-18 14:23 UTC. Time now 2017-Feb-27 14:25 UTC.
Position N 49°00' E 002°04'.
Warning: this ship's position is 9 days out of date.

Length 39 m; draft 3 m.

MMSI: 226002650.

Date/timePositionNaut miles runAvg speedWind from/ knotsBaromVisibWave heightAir tempDewpointWater temp
2017-Feb-18 14:23N 49°00' E 002°04'7 2.6
2017-Feb-18 11:30N 48°54' E 002°10'3 0.2
2017-Feb-17 17:34N 48°53' E 002°15'4 3.3
2017-Feb-17 16:29N 48°50' E 002°15'4 4.5
2017-Feb-17 15:31N 48°51' E 002°22'1 1.5
2017-Feb-17 14:33N 48°50' E 002°23'0 0.0
2017-Feb-17 13:33N 48°50' E 002°23'0 0.0
2017-Feb-17 12:33N 48°50' E 002°23'0 0.0
2017-Feb-17 11:33N 48°50' E 002°23'0 0.0
2017-Feb-17 10:33N 48°50' E 002°23'0 0.0
2017-Feb-17 09:33N 48°50' E 002°23'0 0.0
2017-Feb-17 08:30N 48°50' E 002°23'0 0.0
2017-Feb-17 07:33N 48°50' E 002°23'0 0.0
2017-Feb-17 06:33N 48°50' E 002°23'0 0.0
2017-Feb-17 05:33N 48°50' E 002°23'0 0.0
2017-Feb-17 04:33N 48°50' E 002°23'0 0.0
2017-Feb-17 03:33N 48°50' E 002°23'0 0.0
2017-Feb-17 02:33N 48°50' E 002°23'0 0.0
2017-Feb-17 01:33N 48°50' E 002°23'0 0.0
2017-Feb-17 00:33N 48°50' E 002°23'0 0.0
2017-Feb-16 23:33N 48°50' E 002°23'0 0.0
2017-Feb-16 22:33N 48°50' E 002°23'0 0.0
2017-Feb-16 21:27N 48°50' E 002°23'0 0.0
2017-Feb-16 20:33N 48°50' E 002°23'0 0.0
2017-Feb-16 18:33N 48°50' E 002°23'0 0.0
2017-Feb-16 17:33N 48°50' E 002°23'0 0.0
2017-Feb-16 16:33N 48°50' E 002°23'0 0.0
2017-Feb-16 15:33N 48°50' E 002°23'0 0.0
2017-Feb-16 14:33N 48°50' E 002°23'0 0.0
2017-Feb-16 13:33N 48°50' E 002°23'0 0.0
2017-Feb-16 12:33N 48°50' E 002°23'0 0.0
2017-Feb-16 08:33N 48°50' E 002°23'0 0.0
2017-Feb-16 07:33N 48°50' E 002°23'0 0.0
2017-Feb-16 06:33N 48°50' E 002°23'0 0.0
2017-Feb-16 05:33N 48°50' E 002°23'0 0.0
2017-Feb-16 04:33N 48°50' E 002°23'0 0.0
2017-Feb-16 03:33N 48°50' E 002°23'0 0.0
2017-Feb-16 02:33N 48°50' E 002°23'0 0.0
2017-Feb-16 01:33N 48°50' E 002°23'0 0.0
2017-Feb-16 00:33N 48°50' E 002°23'0 0.0
2017-Feb-15 23:33N 48°50' E 002°23'0 0.0
2017-Feb-15 22:24N 48°50' E 002°23'0 0.0
2017-Feb-15 21:12N 48°50' E 002°23'0 0.0
2017-Feb-15 20:33N 48°50' E 002°23'0 0.0
2017-Feb-15 17:33N 48°50' E 002°23'0 0.0
2017-Feb-15 16:33N 48°50' E 002°23'0 0.0
2017-Feb-15 15:33N 48°50' E 002°23'0 0.0
2017-Feb-15 14:33N 48°50' E 002°23'0 0.0
2017-Feb-15 13:33N 48°50' E 002°23'0 0.0
2017-Feb-15 12:33N 48°50' E 002°23'0 0.0
2017-Feb-15 11:33N 48°50' E 002°23'0 0.0
2017-Feb-15 10:33N 48°50' E 002°23'0 0.0
2017-Feb-15 09:33N 48°50' E 002°23'1 0.8
2017-Feb-15 08:33N 48°50' E 002°22'0 0.0
2017-Feb-15 07:33N 48°50' E 002°22'0 0.0
2017-Feb-15 06:33N 48°50' E 002°22'0 0.0
2017-Feb-15 05:33N 48°50' E 002°22'0 0.0
2017-Feb-15 04:33N 48°50' E 002°22'0 0.0
2017-Feb-15 03:33N 48°50' E 002°22'0 0.0
2017-Feb-15 02:33N 48°50' E 002°22'0 0.0
2017-Feb-15 01:33N 48°50' E 002°22'0 0.0
2017-Feb-15 00:33N 48°50' E 002°22'0 0.0
2017-Feb-14 23:33N 48°50' E 002°22'0 0.0
2017-Feb-14 22:33N 48°50' E 002°22'0 0.0
2017-Feb-14 21:33N 48°50' E 002°22'0 0.0
2017-Feb-14 20:33N 48°50' E 002°22'0 0.0
2017-Feb-14 19:33N 48°50' E 002°22'0 0.0
2017-Feb-14 18:33N 48°50' E 002°22'0 0.0
2017-Feb-14 17:33N 48°50' E 002°22'0 0.0
2017-Feb-14 16:33N 48°50' E 002°22'0 0.0
2017-Feb-14 15:33N 48°50' E 002°22'0 0.0
2017-Feb-14 14:33N 48°50' E 002°22'0 0.0
2017-Feb-14 13:33N 48°50' E 002°22'0 0.0
2017-Feb-14 12:33N 48°50' E 002°22'0 0.0
2017-Feb-14 11:33N 48°50' E 002°22'3 3.1
2017-Feb-14 10:33N 48°52' E 002°18'3 1.8
2017-Feb-14 09:08N 48°53' E 002°15'3 1.8
2017-Feb-14 07:32N 48°56' E 002°14'6 0.4
2017-Feb-13 16:31N 48°59' E 002°08'  
Track history (hours):
 
Tides and Currents Weather Stations Pressure Air Temp Water Temp Dewpoint Dewpoint Depression Visibility Wind Speed Wind Dir Waves Ship Positions

Porthos

Last reported at 2017-Feb-18 14:23 UTC. Time now 2017-Feb-27 14:25 UTC.
Position N 49°00' E 002°04'.
Warning: this ship's position is 9 days out of date.

Length 39 m; draft 3 m.

MMSI: 226002650.

Date/timePositionNaut miles runAvg speedWind from/ knotsBaromVisibWave heightAir tempDewpointWater temp
2017-Feb-18 14:23N 49°00' E 002°04'7 2.6
2017-Feb-18 11:30N 48°54' E 002°10'3 0.2
2017-Feb-17 17:34N 48°53' E 002°15'4 3.3
2017-Feb-17 16:29N 48°50' E 002°15'4 4.5
2017-Feb-17 15:31N 48°51' E 002°22'1 1.5
2017-Feb-17 14:33N 48°50' E 002°23'0 0.0
2017-Feb-17 13:33N 48°50' E 002°23'0 0.0
2017-Feb-17 12:33N 48°50' E 002°23'0 0.0
2017-Feb-17 11:33N 48°50' E 002°23'0 0.0
2017-Feb-17 10:33N 48°50' E 002°23'0 0.0
2017-Feb-17 09:33N 48°50' E 002°23'0 0.0
2017-Feb-17 08:30N 48°50' E 002°23'0 0.0
2017-Feb-17 07:33N 48°50' E 002°23'0 0.0
2017-Feb-17 06:33N 48°50' E 002°23'0 0.0
2017-Feb-17 05:33N 48°50' E 002°23'0 0.0
2017-Feb-17 04:33N 48°50' E 002°23'0 0.0
2017-Feb-17 03:33N 48°50' E 002°23'0 0.0
2017-Feb-17 02:33N 48°50' E 002°23'0 0.0
2017-Feb-17 01:33N 48°50' E 002°23'0 0.0
2017-Feb-17 00:33N 48°50' E 002°23'0 0.0
2017-Feb-16 23:33N 48°50' E 002°23'0 0.0
2017-Feb-16 22:33N 48°50' E 002°23'0 0.0
2017-Feb-16 21:27N 48°50' E 002°23'0 0.0
2017-Feb-16 20:33N 48°50' E 002°23'0 0.0
2017-Feb-16 18:33N 48°50' E 002°23'0 0.0
2017-Feb-16 17:33N 48°50' E 002°23'0 0.0
2017-Feb-16 16:33N 48°50' E 002°23'0 0.0
2017-Feb-16 15:33N 48°50' E 002°23'0 0.0
2017-Feb-16 14:33N 48°50' E 002°23'0 0.0
2017-Feb-16 13:33N 48°50' E 002°23'0 0.0
2017-Feb-16 12:33N 48°50' E 002°23'0 0.0
2017-Feb-16 08:33N 48°50' E 002°23'0 0.0
2017-Feb-16 07:33N 48°50' E 002°23'0 0.0
2017-Feb-16 06:33N 48°50' E 002°23'0 0.0
2017-Feb-16 05:33N 48°50' E 002°23'0 0.0
2017-Feb-16 04:33N 48°50' E 002°23'0 0.0
2017-Feb-16 03:33N 48°50' E 002°23'0 0.0
2017-Feb-16 02:33N 48°50' E 002°23'0 0.0
2017-Feb-16 01:33N 48°50' E 002°23'0 0.0
2017-Feb-16 00:33N 48°50' E 002°23'0 0.0
2017-Feb-15 23:33N 48°50' E 002°23'0 0.0
2017-Feb-15 22:24N 48°50' E 002°23'0 0.0
2017-Feb-15 21:12N 48°50' E 002°23'0 0.0
2017-Feb-15 20:33N 48°50' E 002°23'0 0.0
2017-Feb-15 17:33N 48°50' E 002°23'0 0.0
2017-Feb-15 16:33N 48°50' E 002°23'0 0.0
2017-Feb-15 15:33N 48°50' E 002°23'0 0.0
2017-Feb-15 14:33N 48°50' E 002°23'0 0.0
2017-Feb-15 13:33N 48°50' E 002°23'0 0.0
2017-Feb-15 12:33N 48°50' E 002°23'0 0.0
2017-Feb-15 11:33N 48°50' E 002°23'0 0.0
2017-Feb-15 10:33N 48°50' E 002°23'0 0.0
2017-Feb-15 09:33N 48°50' E 002°23'1 0.8
2017-Feb-15 08:33N 48°50' E 002°22'0 0.0
2017-Feb-15 07:33N 48°50' E 002°22'0 0.0
2017-Feb-15 06:33N 48°50' E 002°22'0 0.0
2017-Feb-15 05:33N 48°50' E 002°22'0 0.0
2017-Feb-15 04:33N 48°50' E 002°22'0 0.0
2017-Feb-15 03:33N 48°50' E 002°22'0 0.0
2017-Feb-15 02:33N 48°50' E 002°22'0 0.0
2017-Feb-15 01:33N 48°50' E 002°22'0 0.0
2017-Feb-15 00:33N 48°50' E 002°22'0 0.0
2017-Feb-14 23:33N 48°50' E 002°22'0 0.0
2017-Feb-14 22:33N 48°50' E 002°22'0 0.0
2017-Feb-14 21:33N 48°50' E 002°22'0 0.0
2017-Feb-14 20:33N 48°50' E 002°22'0 0.0
2017-Feb-14 19:33N 48°50' E 002°22'0 0.0
2017-Feb-14 18:33N 48°50' E 002°22'0 0.0
2017-Feb-14 17:33N 48°50' E 002°22'0 0.0
2017-Feb-14 16:33N 48°50' E 002°22'0 0.0
2017-Feb-14 15:33N 48°50' E 002°22'0 0.0
2017-Feb-14 14:33N 48°50' E 002°22'0 0.0
2017-Feb-14 13:33N 48°50' E 002°22'0 0.0
2017-Feb-14 12:33N 48°50' E 002°22'0 0.0
2017-Feb-14 11:33N 48°50' E 002°22'3 3.1
2017-Feb-14 10:33N 48°52' E 002°18'3 1.8
2017-Feb-14 09:08N 48°53' E 002°15'3 1.8
2017-Feb-14 07:32N 48°56' E 002°14'6 0.4
2017-Feb-13 16:31N 48°59' E 002°08'  

Dump ship's entire track history